»·PEaware :: SWA3305 KSFO-KBUR

SWA3305 :: KSFO-KBUR

FLIGHT INFORMATION

Flight Status: Arrived
Operator:
Southwest Airlines
More flights by this operator :: More flights under this callsign
Pilot: Paul A. (20189)
Aircraft: BOEING 737-700
(B737)
More flights by this aircraft type
Origin: KSFO San Francisco Intl
United States
Destination: KBUR Bob Hope-Burbank
United States
More flights between these airports :: More routes between these airports
Route: SSTIK4 CISKO RDHOT ROKKR2
File this flight plan on PilotEdge
Remarks:
Altitude:
(Current/Filed)
31,000ft
Speed:
(Current/Filed)
455kts
Departed: 26-Nov-18 06:42 PM
Arrived: 26-Nov-18 07:34 PM
Distance/Time
Traveled:
283nm/0:52
Distance/Time
To Go:
Arrived

Flight Plot

Page will automatically refresh every two minutes.

Flight plan parsing failed; only flown route is shown


Map Options




Map Legend


Flown Route
Filed Route
Departure Airport
Arrival Airport
Navaid (VOR, NDB)
Fix

Horizontal Profiles

Position Reports

Time Latitude Longitude Heading Altitude Ground
Speed
26-Nov-18 18:30 37.613355 -122.383656 211 21ft 0kts
26-Nov-18 18:31 37.613355 -122.383656 211 21ft 0kts
26-Nov-18 18:32 37.613355 -122.383656 211 21ft 0kts
26-Nov-18 18:33 37.613355 -122.383656 211 21ft 0kts
26-Nov-18 18:34 37.613355 -122.383656 211 21ft 0kts
26-Nov-18 18:35 37.613355 -122.383656 211 21ft 0kts
26-Nov-18 18:36 37.613355 -122.383656 211 21ft 0kts
26-Nov-18 18:37 37.613355 -122.383656 211 21ft 0kts
26-Nov-18 18:38 37.613355 -122.383656 211 21ft 0kts
26-Nov-18 18:39 37.613770 -122.383378 191 21ft 0kts
26-Nov-18 18:40 37.613770 -122.383378 191 21ft 0kts
26-Nov-18 18:41 37.613398 -122.382624 110 21ft 16kts
26-Nov-18 18:42 37.610500 -122.383724 210 21ft 14kts
26-Nov-18 18:43 37.608471 -122.383828 115 21ft 0kts
26-Nov-18 18:44 37.609133 -122.382127 29 21ft 30kts
26-Nov-18 18:45 37.645492 -122.361153 7 2228ft 165kts
26-Nov-18 18:46 37.699082 -122.379193 306 4521ft 249kts
26-Nov-18 18:47 37.674896 -122.443176 185 8113ft 257kts
26-Nov-18 18:48 37.601407 -122.450890 188 9995ft 270kts
26-Nov-18 18:49 37.526885 -122.466418 190 11511ft 270kts
26-Nov-18 18:50 37.456740 -122.434069 141 14526ft 297kts
26-Nov-18 18:51 37.392859 -122.361784 140 17513ft 319kts
26-Nov-18 18:52 37.327383 -122.287077 141 19106ft 331kts
26-Nov-18 18:53 37.259104 -122.209075 141 19224ft 331kts
26-Nov-18 18:54 37.190601 -122.130387 140 19232ft 346kts
26-Nov-18 18:55 37.117604 -122.046700 140 19266ft 357kts
26-Nov-18 18:56 37.046046 -121.964984 140 22483ft 347kts
26-Nov-18 18:57 36.973040 -121.881869 140 24795ft 369kts
26-Nov-18 18:58 36.889346 -121.786897 139 25790ft 443kts
26-Nov-18 18:59 36.794591 -121.679740 139 27690ft 469kts
26-Nov-18 19:00 36.696067 -121.568705 139 29645ft 483kts
26-Nov-18 19:01 36.596637 -121.457058 139 31212ft 483kts
26-Nov-18 19:02 36.497242 -121.345851 139 31218ft 480kts
26-Nov-18 19:03 36.400276 -121.237747 139 31217ft 480kts
26-Nov-18 19:04 36.300989 -121.127444 139 31214ft 479kts
26-Nov-18 19:05 36.201600 -121.017419 139 31212ft 479kts
26-Nov-18 19:06 36.101985 -120.907533 139 31209ft 480kts
26-Nov-18 19:07 36.004793 -120.800688 139 31206ft 479kts
26-Nov-18 19:08 35.905244 -120.691413 138 31203ft 479kts
26-Nov-18 19:09 35.825202 -120.603969 138 31210ft 479kts
26-Nov-18 19:10 35.708652 -120.477310 138 31210ft 479kts
26-Nov-18 19:11 35.605471 -120.372979 141 31210ft 479kts
26-Nov-18 19:12 35.520315 -120.285010 139 31211ft 479kts
26-Nov-18 19:13 35.418749 -120.179243 139 31211ft 479kts
26-Nov-18 19:14 35.300214 -120.055813 139 31214ft 479kts
26-Nov-18 19:15 35.215570 -119.968203 139 31213ft 479kts
26-Nov-18 19:16 35.114457 -119.864039 139 28894ft 475kts
26-Nov-18 19:17 35.014759 -119.761436 139 25853ft 457kts
26-Nov-18 19:18 34.906569 -119.650779 139 22604ft 435kts
26-Nov-18 19:19 34.839498 -119.566292 127 21142ft 406kts
26-Nov-18 19:20 34.769607 -119.461605 127 19021ft 391kts
26-Nov-18 19:21 34.703231 -119.360058 127 17065ft 376kts
26-Nov-18 19:22 34.641848 -119.265818 123 15367ft 355kts
26-Nov-18 19:23 34.592553 -119.166096 119 13639ft 339kts
26-Nov-18 19:24 34.546054 -119.075783 128 12127ft 316kts
26-Nov-18 19:25 34.480921 -119.010901 142 10816ft 291kts
26-Nov-18 19:26 34.418278 -118.952634 139 9651ft 278kts
26-Nov-18 19:27 34.359032 -118.892421 137 8651ft 276kts
26-Nov-18 19:28 34.305192 -118.833032 137 7698ft 250kts
26-Nov-18 19:29 34.260553 -118.772337 116 6732ft 226kts
26-Nov-18 19:30 34.237155 -118.709584 113 5842ft 190kts
26-Nov-18 19:31 34.216824 -118.654414 113 5028ft 188kts
26-Nov-18 19:32 34.200633 -118.595272 91 4252ft 185kts
26-Nov-18 19:33 34.200136 -118.533722 90 3363ft 183kts
26-Nov-18 19:34 34.199338 -118.474390 90 2428ft 171kts
26-Nov-18 19:35 34.198630 -118.422250 88 1588ft 139kts
26-Nov-18 19:36 34.197940 -118.377088 89 864ft 130kts
26-Nov-18 19:37 34.197746 -118.355602 94 729ft 18kts
26-Nov-18 19:38 34.196742 -118.352664 172 729ft 0kts

Navigation Log

Ident Type
Flight plan parsing failed, navigation log unavailable